Weather at Charlottetown Water Aerodrome [CLOSED]

Public forecast

Using degrees Celsius for public forecast. Weather courtesy of forecast.io.

Closest aviation weather report (METAR) to Charlottetown Water Aerodrome

Closest report is Charlottetown Airport, 4.4 nm (8.1 km) N.

2024/07/25 19:00 (retrieved 1 hour ago)

CYYG 251900Z 15011KT 15SM FEW090 SCT220 OVC240 24/16 A2995 RMK AC2CC2CI4 SLP144 DENSITY ALT 1200FT

Closest aviation forecast (TAF) to Charlottetown Water Aerodrome

Closest forecast is Charlottetown Airport, 4.4 nm (8.1 km) N.

2024/07/25 18:42 (retrieved 1 hour ago)

TAF CYYG 251740Z 2518/2606 17010KT P6SM FEW040 BKN240 FM252300 19012G22KT P6SM BKN030 BKN080 TEMPO 2523/2601 BKN020 OVC080 FM260100 19012G22KT P6SM -SHRA SCT015 OVC050 TEMPO 2601/2605 4SM -SHRA BR BKN015 OVC050 PROB40 2603/2605 BKN007 FM260500 21010KT 6SM BR OVC007 RMK NXT FCST BY 260000Z